Accueil
METAR-TAF:

METAR-TAF

Aéroports :

Aéroport de Lannion-Côte de Granit

Lannion, France

latitude: 48-45N, longitude: 003-28W, altitude: 89 m

Observation

Le bulletin a été fait il y a 41 minutes, à 17:00 UTC
Vent 3 kt de nord-est, variant entre nord et est
Température 11°C
Humidité 94%
Pression 1020 hPa
Visibilité: 7000 m
Quelques nuages à une hauteur de 1100 ft
Ciel couvert à une hauteur de 3800 ft

METAR: LFRO 261700Z AUTO 05003KT 350V090 7000 FEW011 OVC038 11/10 Q1020

Heure: 18:41 (17:41 UTC)


TAF: absent

Observations et prévisions météorologiques de plus de 4000 aéroports (messages METAR et TAF).

Les stations disponibles sont représentées par des disques jaunes et rouges sur la carte.

Passer la souris dessus pour voir le nom de la station.

Cliquer dessus pour voir les observations et prévisions météorologiques.

Pour changer de carte: cliquez sur les boutons verts avec une croix noire pour zoomer, sur le bouton vert avec un tiret pour effectuer un zoom arrière, ou sur les flèches vertes pour les cartes adjacentes.


METAR-TAF: